Time;durP1;ratioP1;P1;durP2;ratioP2;P2;SDS_P1;SDS_P2;PMS_P1;PMS_P2;Temp;Humidity;BMP_temperature;BMP_pressure;BME280_temperature;BME280_humidity;BME280_pressure;Samples;Min_cycle;Max_cycle;Signal;HPM_P1;HPM_P2
2024/01/31 00:01:09;;;;;;;0.00;0.00;;;7.40;99.90;;;;;;5093510;28;20199;-63
2024/01/31 00:03:35;;;;;;;0.00;0.00;;;7.40;99.90;;;;;;5093101;28;20172;-63
2024/01/31 00:06:02;;;;;;;0.00;0.00;;;7.40;99.90;;;;;;5093195;28;20184;-63
2024/01/31 00:08:28;;;;;;;0.00;0.00;;;7.50;99.90;;;;;;5093433;28;20175;-63
2024/01/31 00:10:53;;;;;;;0.00;0.00;;;7.50;99.90;;;;;;5093302;28;20192;-63
2024/01/31 00:13:19;;;;;;;0.00;0.00;;;7.50;99.90;;;;;;5093351;28;20175;-63
2024/01/31 00:15:45;;;;;;;0.03;0.03;;;7.50;99.90;;;;;;5093233;28;20192;-63
2024/01/31 00:18:10;;;;;;;0.00;0.00;;;7.50;99.90;;;;;;5092278;28;20275;-63
2024/01/31 00:20:36;;;;;;;0.13;0.13;;;7.50;99.90;;;;;;5093057;28;20187;-63
2024/01/31 00:23:01;;;;;;;0.00;0.00;;;7.50;99.90;;;;;;5093291;28;20180;-63
2024/01/31 00:25:27;;;;;;;0.00;0.00;;;7.50;99.90;;;;;;5093041;28;20667;-63
2024/01/31 00:27:52;;;;;;;0.00;0.00;;;7.50;99.90;;;;;;5093203;28;20176;-63
2024/01/31 00:30:18;;;;;;;0.00;0.00;;;7.40;99.90;;;;;;5092732;28;20218;-64
2024/01/31 00:32:43;;;;;;;0.05;0.05;;;7.40;99.90;;;;;;5092358;28;20212;-63
2024/01/31 00:35:09;;;;;;;0.05;0.03;;;7.40;99.90;;;;;;5092461;28;20212;-63
2024/01/31 00:37:34;;;;;;;0.10;0.10;;;7.40;99.90;;;;;;5092359;28;20183;-63
2024/01/31 00:40:00;;;;;;;0.10;0.10;;;7.40;99.90;;;;;;5091330;28;20257;-63
2024/01/31 00:42:25;;;;;;;0.00;0.00;;;7.40;99.90;;;;;;5092630;28;20712;-63
2024/01/31 00:44:51;;;;;;;0.00;0.00;;;7.40;99.90;;;;;;5092559;28;20200;-63
2024/01/31 00:47:16;;;;;;;0.00;0.00;;;7.40;99.90;;;;;;5092160;28;20183;-63
2024/01/31 00:49:42;;;;;;;0.00;0.00;;;7.40;99.90;;;;;;5092302;28;20196;-63
2024/01/31 00:52:07;;;;;;;0.10;0.10;;;7.40;99.90;;;;;;5092628;28;20172;-63
2024/01/31 00:54:33;;;;;;;0.00;0.00;;;7.40;99.90;;;;;;5091957;28;21050;-63
2024/01/31 00:56:58;;;;;;;0.00;0.00;;;7.40;99.90;;;;;;5091911;28;20188;-63
2024/01/31 00:59:24;;;;;;;0.00;0.00;;;7.40;99.90;;;;;;5091787;28;20205;-63
2024/01/31 01:01:50;;;;;;;0.00;0.00;;;7.40;99.90;;;;;;5091933;28;20245;-63
2024/01/31 01:04:15;;;;;;;0.00;0.00;;;7.40;99.90;;;;;;5091613;28;20180;-63
2024/01/31 01:06:41;;;;;;;0.00;0.00;;;7.40;99.90;;;;;;5091949;28;20196;-63
2024/01/31 01:09:07;;;;;;;0.08;0.08;;;7.40;99.90;;;;;;5090929;28;20172;-63
2024/01/31 01:11:32;;;;;;;0.00;0.00;;;7.40;99.90;;;;;;5091655;28;20199;-63
2024/01/31 01:13:58;;;;;;;0.10;0.10;;;7.50;99.90;;;;;;5091792;28;20222;-63
2024/01/31 01:16:23;;;;;;;0.05;0.05;;;7.50;99.90;;;;;;5091701;28;20173;-63
2024/01/31 01:18:49;;;;;;;0.00;0.00;;;7.50;99.90;;;;;;5091177;28;20180;-62
2024/01/31 01:21:14;;;;;;;0.00;0.00;;;7.50;99.90;;;;;;5091720;28;20613;-63
2024/01/31 01:23:40;;;;;;;0.00;0.00;;;7.50;99.90;;;;;;5091529;28;20188;-63
2024/01/31 01:26:05;;;;;;;0.00;0.00;;;7.50;99.90;;;;;;5091795;28;20164;-63
2024/01/31 01:28:31;;;;;;;0.00;0.00;;;7.50;99.90;;;;;;5091581;28;20176;-63
2024/01/31 01:30:56;;;;;;;0.00;0.00;;;7.50;99.90;;;;;;5091420;28;20636;-63
2024/01/31 01:33:22;;;;;;;0.03;0.03;;;7.50;99.90;;;;;;5091429;28;20206;-63
2024/01/31 01:35:47;;;;;;;0.00;0.00;;;7.50;99.90;;;;;;5090961;28;20661;-62
2024/01/31 01:38:13;;;;;;;0.00;0.00;;;7.50;99.90;;;;;;5091479;28;20171;-63
2024/01/31 01:40:45;;;;;;;0.00;0.00;;;7.50;99.90;;;;;;5090985;28;20267;-63
2024/01/31 01:43:16;;;;;;;0.10;0.10;;;7.50;99.90;;;;;;5091352;28;20191;-63
2024/01/31 01:45:42;;;;;;;0.20;0.20;;;7.50;99.90;;;;;;5091009;28;20219;-63
2024/01/31 01:48:07;;;;;;;0.17;0.13;;;7.60;99.90;;;;;;5090895;28;20700;-63
2024/01/31 01:50:33;;;;;;;0.00;0.00;;;7.60;99.90;;;;;;5091056;28;20184;-63
2024/01/31 01:52:58;;;;;;;0.00;0.00;;;7.60;99.90;;;;;;5091007;28;20225;-63
2024/01/31 01:55:24;;;;;;;0.00;0.00;;;7.60;99.90;;;;;;5091205;28;20304;-63
2024/01/31 01:57:50;;;;;;;0.00;0.00;;;7.60;99.90;;;;;;5091214;28;20241;-63
2024/01/31 02:00:17;;;;;;;0.00;0.00;;;7.60;99.90;;;;;;5091071;28;20180;-63
2024/01/31 02:02:43;;;;;;;0.03;0.03;;;7.60;99.90;;;;;;5090613;28;20263;-63
2024/01/31 02:05:08;;;;;;;0.00;0.00;;;7.60;99.90;;;;;;5090798;28;20271;-62
2024/01/31 02:07:34;;;;;;;0.00;0.00;;;7.60;99.90;;;;;;5090941;28;20720;-62
2024/01/31 02:10:00;;;;;;;0.08;0.08;;;7.60;99.90;;;;;;5090824;28;20618;-62
2024/01/31 02:12:26;;;;;;;0.00;0.00;;;7.60;99.90;;;;;;5091082;28;20267;-63
2024/01/31 02:14:52;;;;;;;0.00;0.00;;;7.60;99.90;;;;;;5089627;28;20255;-62
2024/01/31 02:17:18;;;;;;;0.28;0.20;;;7.60;99.90;;;;;;5090192;28;20798;-62
2024/01/31 02:19:44;;;;;;;0.00;0.00;;;7.60;99.90;;;;;;5090135;28;20184;-62
2024/01/31 02:22:19;;;;;;;0.08;0.08;;;7.60;99.90;;;;;;5090738;28;20263;-62
2024/01/31 02:24:45;;;;;;;0.00;0.00;;;7.60;99.90;;;;;;5090344;28;20190;-63
2024/01/31 02:27:11;;;;;;;0.10;0.10;;;7.60;99.90;;;;;;5089208;28;20172;-63
2024/01/31 02:29:37;;;;;;;0.10;0.10;;;7.70;99.90;;;;;;5088952;28;20185;-63
2024/01/31 02:32:04;;;;;;;0.20;0.20;;;7.70;99.90;;;;;;5090410;28;20172;-63
2024/01/31 02:34:30;;;;;;;0.00;0.00;;;7.70;99.90;;;;;;5088154;28;20223;-63
2024/01/31 02:36:56;;;;;;;0.00;0.00;;;7.70;99.90;;;;;;5090292;28;20176;-63
2024/01/31 02:39:21;;;;;;;0.00;0.00;;;7.70;99.90;;;;;;5090364;28;20228;-63
2024/01/31 02:41:47;;;;;;;0.00;0.00;;;7.80;99.90;;;;;;5088138;28;20219;-63
2024/01/31 02:44:12;;;;;;;0.03;0.03;;;7.80;99.90;;;;;;5086766;28;20192;-63
2024/01/31 02:46:38;;;;;;;0.20;0.10;;;7.80;99.90;;;;;;5088611;28;20694;-63
2024/01/31 02:49:03;;;;;;;0.00;0.00;;;7.80;99.90;;;;;;5086189;28;20188;-63
2024/01/31 02:51:29;;;;;;;0.00;0.00;;;7.80;99.90;;;;;;5086677;28;20214;-62
2024/01/31 02:53:54;;;;;;;0.00;0.00;;;7.90;99.90;;;;;;5086492;28;20731;-63
2024/01/31 02:56:20;;;;;;;0.00;0.00;;;7.90;99.90;;;;;;5088993;28;20263;-63
2024/01/31 02:58:45;;;;;;;0.15;0.15;;;7.90;99.90;;;;;;5090455;28;20259;-63
2024/01/31 03:01:11;;;;;;;0.17;0.17;;;7.90;99.90;;;;;;5090555;28;20215;-63
2024/01/31 03:03:36;;;;;;;0.00;0.00;;;7.90;99.90;;;;;;5091053;28;20207;-63
2024/01/31 03:06:02;;;;;;;0.00;0.00;;;8.00;99.90;;;;;;5094589;28;20543;-62
2024/01/31 03:08:28;;;;;;;0.03;0.03;;;8.00;99.90;;;;;;5092711;28;20647;-62
2024/01/31 03:10:53;;;;;;;0.40;0.40;;;8.00;99.90;;;;;;5094409;28;20237;-63
2024/01/31 03:13:19;;;;;;;0.00;0.00;;;8.00;99.90;;;;;;5093197;28;20251;-63
2024/01/31 03:15:44;;;;;;;0.00;0.00;;;8.00;99.90;;;;;;5094116;28;20215;-63
2024/01/31 03:18:10;;;;;;;0.00;0.00;;;8.00;99.90;;;;;;5094132;28;20184;-63
2024/01/31 03:20:35;;;;;;;0.00;0.00;;;8.00;99.90;;;;;;5093570;28;20187;-63
2024/01/31 03:23:02;;;;;;;0.00;0.00;;;8.00;99.90;;;;;;5094282;28;20680;-63
2024/01/31 03:25:27;;;;;;;0.00;0.00;;;8.00;99.90;;;;;;5093766;28;20175;-63
2024/01/31 03:27:53;;;;;;;0.00;0.00;;;8.00;99.90;;;;;;5094000;28;20176;-63
2024/01/31 03:30:18;;;;;;;0.00;0.00;;;8.10;99.90;;;;;;5093451;28;20184;-62
2024/01/31 03:32:44;;;;;;;0.10;0.10;;;8.10;99.90;;;;;;5093315;28;20198;-62
2024/01/31 03:35:09;;;;;;;0.20;0.20;;;8.10;99.90;;;;;;5093640;28;20295;-63
2024/01/31 03:37:35;;;;;;;0.00;0.00;;;8.10;99.90;;;;;;5093225;28;20181;-63
2024/01/31 03:40:04;;;;;;;0.00;0.00;;;8.10;99.90;;;;;;5093388;28;20228;-62
2024/01/31 03:42:29;;;;;;;0.00;0.00;;;8.10;99.90;;;;;;5093301;28;20233;-63
2024/01/31 03:44:56;;;;;;;0.00;0.00;;;8.10;99.90;;;;;;5092330;28;20184;-62
2024/01/31 03:47:22;;;;;;;0.00;0.00;;;8.10;99.90;;;;;;5093470;28;20181;-62
2024/01/31 03:49:49;;;;;;;0.00;0.00;;;8.10;99.90;;;;;;5093077;28;20663;-62
2024/01/31 03:52:15;;;;;;;0.00;0.00;;;8.10;99.90;;;;;;5088295;28;20203;-62
2024/01/31 03:54:40;;;;;;;0.20;0.20;;;8.20;99.90;;;;;;5092975;28;20254;-63
2024/01/31 03:57:06;;;;;;;0.10;0.10;;;8.20;99.90;;;;;;5093596;28;20531;-63
2024/01/31 03:59:31;;;;;;;0.10;0.10;;;8.20;99.90;;;;;;5093339;28;20168;-63
2024/01/31 04:01:57;;;;;;;0.00;0.00;;;8.20;99.90;;;;;;5092992;28;20178;-63
2024/01/31 04:04:22;;;;;;;0.35;0.20;;;8.20;99.90;;;;;;5092932;28;20639;-62
2024/01/31 04:06:48;;;;;;;0.00;0.00;;;8.20;99.90;;;;;;5092891;28;20216;-62
2024/01/31 04:09:13;;;;;;;0.00;0.00;;;8.20;99.90;;;;;;5093507;28;20252;-62
2024/01/31 04:11:39;;;;;;;0.00;0.00;;;8.30;99.90;;;;;;5093413;28;20240;-62
2024/01/31 04:14:04;;;;;;;0.00;0.00;;;8.30;99.90;;;;;;5093295;28;20604;-62
2024/01/31 04:16:30;;;;;;;0.00;0.00;;;8.30;99.90;;;;;;5093279;28;20188;-62
2024/01/31 04:18:55;;;;;;;0.00;0.00;;;8.40;99.90;;;;;;5092765;28;20180;-62
2024/01/31 04:21:22;;;;;;;0.00;0.00;;;8.40;99.90;;;;;;5093243;28;20180;-62
2024/01/31 04:23:48;;;;;;;0.00;0.00;;;8.40;99.90;;;;;;5092875;28;20180;-62
2024/01/31 04:26:13;;;;;;;0.00;0.00;;;8.40;99.90;;;;;;5093143;28;20267;-62
2024/01/31 04:28:39;;;;;;;0.30;0.13;;;8.40;99.90;;;;;;5125530;27;20619;-62
2024/01/31 04:31:04;;;;;;;0.00;0.00;;;8.40;99.90;;;;;;5091764;28;20191;-63
2024/01/31 04:33:30;;;;;;;0.00;0.00;;;8.40;99.90;;;;;;5092977;28;20169;-63
2024/01/31 04:35:55;;;;;;;0.00;0.00;;;8.30;99.90;;;;;;5092790;28;20712;-63
2024/01/31 04:38:21;;;;;;;0.10;0.10;;;8.30;99.90;;;;;;5071060;28;20177;-64
2024/01/31 04:40:46;;;;;;;0.00;0.00;;;8.30;99.90;;;;;;5088074;28;20250;-62
2024/01/31 04:43:16;;;;;;;0.00;0.00;;;8.30;99.90;;;;;;5091762;28;20168;-60
2024/01/31 04:45:42;;;;;;;0.00;0.00;;;8.30;99.90;;;;;;5093074;28;20218;-61
2024/01/31 04:48:08;;;;;;;0.00;0.00;;;8.30;99.90;;;;;;5093369;28;20785;-60
2024/01/31 04:50:33;;;;;;;0.00;0.00;;;8.20;99.90;;;;;;5092604;28;20183;-62
2024/01/31 04:52:59;;;;;;;0.00;0.00;;;8.20;99.90;;;;;;5093122;28;20278;-59
2024/01/31 04:55:24;;;;;;;0.00;0.00;;;8.20;99.90;;;;;;5092896;28;20247;-61
2024/01/31 04:57:50;;;;;;;0.32;0.32;;;8.20;99.90;;;;;;5092970;28;20172;-60
2024/01/31 05:00:16;;;;;;;0.00;0.00;;;8.20;99.90;;;;;;5092803;28;20643;-61
2024/01/31 05:02:41;;;;;;;0.45;0.45;;;8.10;99.90;;;;;;5092713;28;20180;-60
2024/01/31 05:05:07;;;;;;;0.00;0.00;;;8.00;99.90;;;;;;5092268;28;20514;-60
2024/01/31 05:07:33;;;;;;;0.00;0.00;;;8.00;99.90;;;;;;5092780;28;20647;-59
2024/01/31 05:09:58;;;;;;;0.00;0.00;;;8.00;99.90;;;;;;5092712;28;20647;-60
2024/01/31 05:12:24;;;;;;;0.20;0.20;;;8.00;99.90;;;;;;5092362;28;20193;-60
2024/01/31 05:14:49;;;;;;;0.00;0.00;;;7.90;99.90;;;;;;5091212;28;20805;-61
2024/01/31 05:17:18;;;;;;;0.03;0.03;;;7.80;99.90;;;;;;5091279;28;20179;-61
2024/01/31 05:19:43;;;;;;;0.30;0.10;;;7.80;99.90;;;;;;5092329;28;20180;-61
2024/01/31 05:22:09;;;;;;;0.00;0.00;;;7.70;99.90;;;;;;5092110;28;20187;-61
2024/01/31 05:24:35;;;;;;;0.52;0.52;;;7.70;99.90;;;;;;5092313;28;20305;-61
2024/01/31 05:27:03;;;;;;;0.00;0.00;;;7.70;99.90;;;;;;5091725;28;20176;-61
2024/01/31 05:29:30;;;;;;;0.00;0.00;;;7.60;99.90;;;;;;5092096;28;20723;-62
2024/01/31 05:31:55;;;;;;;0.00;0.00;;;7.60;99.90;;;;;;5092161;28;20192;-62
2024/01/31 05:34:22;;;;;;;0.00;0.00;;;7.60;99.90;;;;;;5091921;28;20241;-61
2024/01/31 05:36:51;;;;;;;0.00;0.00;;;7.60;99.90;;;;;;5091943;28;20191;-62
2024/01/31 05:39:16;;;;;;;0.10;0.10;;;7.60;99.90;;;;;;5091807;28;20219;-62
2024/01/31 05:41:42;;;;;;;0.00;0.00;;;7.60;99.90;;;;;;5091669;28;20188;-62
2024/01/31 05:44:08;;;;;;;0.00;0.00;;;7.60;99.90;;;;;;5082523;28;20176;-62
2024/01/31 05:46:34;;;;;;;0.00;0.00;;;7.60;99.90;;;;;;5092060;28;20176;-61
2024/01/31 05:49:02;;;;;;;0.00;0.00;;;7.60;99.90;;;;;;5092143;28;20183;-62
2024/01/31 05:51:30;;;;;;;0.00;0.00;;;7.60;99.90;;;;;;5091987;28;20199;-62
2024/01/31 05:53:56;;;;;;;0.00;0.00;;;7.60;99.90;;;;;;5091986;28;20234;-61
2024/01/31 05:56:22;;;;;;;0.00;0.00;;;7.60;99.90;;;;;;5091918;28;20582;-62
2024/01/31 05:58:48;;;;;;;0.00;0.00;;;7.60;99.90;;;;;;5091960;28;20275;-62
2024/01/31 06:01:13;;;;;;;0.00;0.00;;;7.60;99.90;;;;;;5091791;28;20687;-62
2024/01/31 06:03:39;;;;;;;0.00;0.00;;;7.50;99.90;;;;;;5090592;28;20266;-61
2024/01/31 06:06:06;;;;;;;0.00;0.00;;;7.50;99.90;;;;;;5091729;28;20284;-62
2024/01/31 06:08:35;;;;;;;0.08;0.08;;;7.50;99.90;;;;;;5091731;28;20207;-61
2024/01/31 06:11:08;;;;;;;0.00;0.00;;;7.50;99.90;;;;;;5091718;28;20580;-61
2024/01/31 06:13:37;;;;;;;0.00;0.00;;;7.50;99.90;;;;;;5091749;28;20210;-62
2024/01/31 06:16:03;;;;;;;0.00;0.00;;;7.50;99.90;;;;;;5124282;27;20639;-62
2024/01/31 06:18:33;;;;;;;0.00;0.00;;;7.50;99.90;;;;;;5091594;28;20245;-61
2024/01/31 06:20:59;;;;;;;0.30;0.30;;;7.50;99.90;;;;;;5091673;28;20183;-62
2024/01/31 06:23:26;;;;;;;0.00;0.00;;;7.40;99.90;;;;;;5091417;28;20225;-61
2024/01/31 06:25:52;;;;;;;0.03;0.03;;;7.40;99.90;;;;;;5091494;28;20180;-62
2024/01/31 06:28:17;;;;;;;0.10;0.10;;;7.40;99.90;;;;;;5091535;28;20172;-62
2024/01/31 06:30:48;;;;;;;0.00;0.00;;;7.40;99.90;;;;;;5091332;28;20171;-62
2024/01/31 06:33:17;;;;;;;0.10;0.10;;;7.40;99.90;;;;;;5091507;28;20180;-61
2024/01/31 06:35:42;;;;;;;0.00;0.00;;;7.40;99.90;;;;;;5091128;28;20222;-62
2024/01/31 06:38:08;;;;;;;0.00;0.00;;;7.40;99.90;;;;;;5092725;28;20254;-62
2024/01/31 06:40:33;;;;;;;2.33;0.45;;;7.40;99.90;;;;;;5095328;28;20227;-62
2024/01/31 06:42:59;;;;;;;0.00;0.00;;;7.40;99.90;;;;;;5095691;28;20222;-62
2024/01/31 06:45:25;;;;;;;0.10;0.10;;;7.40;99.90;;;;;;5095371;28;20180;-62
2024/01/31 06:47:51;;;;;;;0.15;0.15;;;7.40;99.90;;;;;;5095464;28;20179;-62
2024/01/31 06:50:16;;;;;;;0.00;0.00;;;7.40;99.90;;;;;;5095599;28;20187;-62
2024/01/31 06:52:42;;;;;;;0.00;0.00;;;7.40;99.90;;;;;;5095334;28;20653;-62
2024/01/31 06:55:08;;;;;;;0.00;0.00;;;7.40;99.90;;;;;;5095379;28;20211;-61
2024/01/31 06:57:34;;;;;;;0.00;0.00;;;7.40;99.90;;;;;;5095243;28;20176;-61
2024/01/31 07:00:00;;;;;;;0.00;0.00;;;7.40;99.90;;;;;;5095302;28;20180;-61
2024/01/31 07:02:26;;;;;;;0.10;0.10;;;7.40;99.90;;;;;;5095165;28;20179;-61
2024/01/31 07:04:51;;;;;;;0.03;0.03;;;7.40;99.90;;;;;;5095231;28;20172;-61
2024/01/31 07:07:17;;;;;;;0.00;0.00;;;7.40;99.90;;;;;;5095064;28;20641;-62
2024/01/31 07:09:42;;;;;;;0.05;0.05;;;7.40;99.90;;;;;;5094970;28;20180;-62
2024/01/31 07:12:08;;;;;;;0.10;0.10;;;7.40;99.90;;;;;;5095117;28;20168;-62
2024/01/31 07:14:34;;;;;;;0.00;0.00;;;7.40;99.90;;;;;;5094858;28;20345;-62
2024/01/31 07:16:59;;;;;;;0.00;0.00;;;7.40;99.90;;;;;;5094988;28;20751;-62
2024/01/31 07:19:25;;;;;;;0.00;0.00;;;7.40;99.90;;;;;;5094846;28;20188;-62
2024/01/31 07:21:50;;;;;;;0.20;0.10;;;7.40;99.90;;;;;;5094838;28;20199;-62
2024/01/31 07:24:16;;;;;;;0.00;0.00;;;7.40;99.90;;;;;;5095034;28;20172;-62
2024/01/31 07:26:42;;;;;;;0.00;0.00;;;7.40;99.90;;;;;;5094662;28;20188;-62
2024/01/31 07:29:08;;;;;;;0.00;0.00;;;7.40;99.90;;;;;;5094850;28;20194;-62
2024/01/31 07:31:34;;;;;;;0.00;0.00;;;7.40;99.90;;;;;;5094625;28;20187;-62
2024/01/31 07:33:59;;;;;;;0.00;0.00;;;7.40;99.90;;;;;;5094665;28;20295;-62
2024/01/31 07:36:25;;;;;;;0.00;0.00;;;7.40;99.90;;;;;;5094485;28;20180;-62
2024/01/31 07:38:50;;;;;;;0.00;0.00;;;7.40;99.90;;;;;;5094366;28;20195;-62
2024/01/31 07:41:16;;;;;;;0.05;0.05;;;7.40;99.90;;;;;;5094546;28;20216;-62
2024/01/31 07:43:42;;;;;;;0.22;0.22;;;7.50;99.90;;;;;;5094227;28;20635;-62
2024/01/31 07:46:08;;;;;;;0.00;0.00;;;7.50;99.90;;;;;;5094505;28;20682;-62
2024/01/31 07:48:34;;;;;;;0.00;0.00;;;7.40;99.90;;;;;;5093834;28;20259;-62
2024/01/31 07:51:04;;;;;;;0.47;0.13;;;7.40;99.90;;;;;;5094422;28;20242;-62
2024/01/31 07:53:30;;;;;;;0.00;0.00;;;7.50;99.90;;;;;;5094241;28;20176;-62
2024/01/31 07:55:56;;;;;;;0.05;0.05;;;7.50;99.90;;;;;;5094179;28;20350;-62
2024/01/31 07:58:21;;;;;;;0.00;0.00;;;7.50;99.90;;;;;;5094120;28;20184;-62
2024/01/31 08:00:47;;;;;;;0.10;0.10;;;7.50;99.90;;;;;;5094011;28;20617;-62
2024/01/31 08:03:12;;;;;;;0.00;0.00;;;7.50;99.90;;;;;;5094062;28;20217;-62
2024/01/31 08:05:38;;;;;;;0.20;0.20;;;7.50;99.90;;;;;;5094018;28;20187;-62
2024/01/31 08:08:04;;;;;;;0.10;0.10;;;7.50;99.90;;;;;;5093935;28;20214;-62
2024/01/31 08:10:29;;;;;;;0.00;0.00;;;7.50;99.90;;;;;;5093890;28;20180;-62
2024/01/31 08:12:55;;;;;;;1.02;1.02;;;7.50;99.90;;;;;;5126857;27;20255;-62
2024/01/31 08:15:21;;;;;;;0.60;0.60;;;7.60;99.90;;;;;;5093826;28;20222;-62
2024/01/31 08:17:47;;;;;;;0.45;0.45;;;7.60;99.90;;;;;;5093857;28;20175;-62
2024/01/31 08:20:13;;;;;;;0.08;0.08;;;7.70;99.90;;;;;;5093862;28;20168;-62
2024/01/31 08:22:38;;;;;;;0.00;0.00;;;7.70;99.90;;;;;;5093701;28;20184;-62
2024/01/31 08:25:04;;;;;;;0.90;0.90;;;7.80;99.90;;;;;;5093588;28;20171;-62
2024/01/31 08:27:31;;;;;;;1.20;1.15;;;7.80;99.90;;;;;;5093619;28;20176;-62
2024/01/31 08:29:56;;;;;;;0.63;0.63;;;7.80;99.90;;;;;;5093359;28;20195;-62
2024/01/31 08:32:22;;;;;;;0.03;0.03;;;7.90;99.90;;;;;;5093464;28;20172;-61
2024/01/31 08:34:47;;;;;;;0.50;0.50;;;7.90;99.90;;;;;;5092152;28;20241;-62
2024/01/31 08:37:13;;;;;;;0.10;0.10;;;8.00;99.90;;;;;;5093523;28;20525;-62
2024/01/31 08:39:38;;;;;;;0.73;0.73;;;8.00;99.90;;;;;;5093138;28;20751;-62
2024/01/31 08:42:04;;;;;;;0.47;0.20;;;8.00;99.90;;;;;;5093271;28;20180;-63
2024/01/31 08:44:30;;;;;;;0.10;0.10;;;8.00;99.90;;;;;;5093281;28;20876;-62
2024/01/31 08:46:55;;;;;;;0.08;0.08;;;8.10;99.90;;;;;;5093331;28;20176;-62
2024/01/31 08:49:21;;;;;;;0.32;0.32;;;8.10;99.90;;;;;;5093172;28;20180;-62
2024/01/31 08:51:47;;;;;;;0.00;0.00;;;8.20;99.90;;;;;;5093074;28;20187;-62
2024/01/31 08:54:13;;;;;;;0.00;0.00;;;8.20;99.90;;;;;;5093238;28;20670;-62
2024/01/31 08:56:39;;;;;;;0.10;0.10;;;8.30;99.90;;;;;;5091780;28;20191;-62
2024/01/31 08:59:04;;;;;;;0.20;0.20;;;8.30;99.90;;;;;;5092920;28;20176;-62
2024/01/31 09:01:30;;;;;;;0.20;0.20;;;8.40;99.90;;;;;;5092082;28;20583;-62
2024/01/31 09:03:55;;;;;;;0.50;0.22;;;8.50;99.90;;;;;;5092981;28;20632;-62
2024/01/31 09:06:21;;;;;;;1.27;0.90;;;8.50;99.90;;;;;;5092831;28;20180;-61
2024/01/31 09:08:48;;;;;;;0.05;0.05;;;8.50;99.90;;;;;;5091590;28;20499;-62
2024/01/31 09:11:13;;;;;;;0.08;0.08;;;8.50;99.90;;;;;;5092880;28;20258;-62
2024/01/31 09:13:39;;;;;;;0.03;0.03;;;8.60;99.90;;;;;;5092831;28;20270;-62
2024/01/31 09:16:04;;;;;;;2.10;0.30;;;8.60;99.90;;;;;;5092602;28;20218;-62
2024/01/31 09:18:31;;;;;;;0.20;0.20;;;8.60;99.90;;;;;;5092639;28;20623;-62
2024/01/31 09:20:56;;;;;;;0.00;0.00;;;8.70;99.90;;;;;;5092834;28;20180;-62
2024/01/31 09:23:22;;;;;;;0.00;0.00;;;8.70;99.90;;;;;;5092670;28;20172;-61
2024/01/31 09:25:48;;;;;;;0.00;0.00;;;8.80;99.90;;;;;;5092739;28;20172;-62
2024/01/31 09:28:14;;;;;;;0.10;0.10;;;8.90;99.90;;;;;;5092594;28;20736;-62
2024/01/31 09:30:39;;;;;;;0.08;0.08;;;8.90;99.90;;;;;;5091286;28;20176;-62
2024/01/31 09:33:05;;;;;;;0.00;0.00;;;8.90;99.90;;;;;;5092508;28;20176;-62
2024/01/31 09:35:31;;;;;;;0.10;0.10;;;8.90;99.90;;;;;;5092387;28;20603;-62
2024/01/31 09:37:56;;;;;;;0.20;0.20;;;9.00;99.90;;;;;;5092508;28;20259;-62
2024/01/31 09:40:23;;;;;;;0.25;0.25;;;9.00;99.90;;;;;;5073908;28;20308;-62
2024/01/31 09:42:51;;;;;;;0.00;0.00;;;9.10;99.90;;;;;;5092374;28;20768;-62
2024/01/31 09:45:17;;;;;;;0.00;0.00;;;9.20;99.90;;;;;;5092403;28;20249;-62
2024/01/31 09:47:45;;;;;;;0.10;0.10;;;9.30;99.90;;;;;;5091918;28;20711;-62
2024/01/31 09:50:11;;;;;;;0.00;0.00;;;9.50;99.90;;;;;;5092251;28;20219;-62
2024/01/31 09:52:39;;;;;;;0.10;0.10;;;9.40;99.90;;;;;;5092083;28;20198;-62
2024/01/31 09:55:09;;;;;;;0.08;0.03;;;9.40;99.90;;;;;;5091915;28;20220;-62
2024/01/31 09:57:35;;;;;;;0.10;0.10;;;9.40;99.90;;;;;;5092079;28;20521;-62
2024/01/31 10:00:03;;;;;;;0.00;0.00;;;9.40;99.90;;;;;;5092115;28;20305;-63
2024/01/31 10:02:31;;;;;;;0.03;0.03;;;9.40;99.90;;;;;;5092019;28;20183;-62
2024/01/31 10:04:57;;;;;;;0.00;0.00;;;9.40;99.90;;;;;;5091999;28;20249;-62
2024/01/31 10:07:29;;;;;;;0.15;0.15;;;9.30;99.90;;;;;;5091815;28;20204;-62
2024/01/31 10:09:56;;;;;;;0.10;0.10;;;9.30;99.90;;;;;;5091976;28;20666;-62
2024/01/31 10:12:22;;;;;;;0.00;0.00;;;9.30;99.90;;;;;;5091643;28;20180;-62
2024/01/31 10:14:48;;;;;;;0.00;0.00;;;9.30;99.90;;;;;;5091786;28;20269;-62
2024/01/31 10:17:14;;;;;;;0.00;0.00;;;9.30;99.90;;;;;;5091705;28;20176;-62
2024/01/31 10:19:40;;;;;;;0.00;0.00;;;9.30;99.90;;;;;;5091737;28;20263;-62
2024/01/31 10:22:06;;;;;;;0.00;0.00;;;9.40;99.90;;;;;;5091652;28;20582;-62
2024/01/31 10:24:32;;;;;;;0.00;0.00;;;9.40;99.90;;;;;;5091638;28;20674;-62
2024/01/31 10:26:57;;;;;;;0.00;0.00;;;9.40;99.90;;;;;;5091762;28;20204;-62
2024/01/31 10:29:23;;;;;;;0.00;0.00;;;9.50;99.90;;;;;;5091430;28;20538;-62
2024/01/31 10:31:52;;;;;;;0.00;0.00;;;9.60;99.90;;;;;;5091605;28;20229;-62
2024/01/31 10:34:18;;;;;;;0.13;0.13;;;9.60;99.90;;;;;;5091453;28;20204;-62
2024/01/31 10:36:44;;;;;;;0.00;0.00;;;9.70;99.90;;;;;;5091451;28;20179;-62
2024/01/31 10:39:10;;;;;;;0.63;0.63;;;9.80;99.90;;;;;;5091395;28;20266;-62
2024/01/31 10:41:37;;;;;;;0.00;0.00;;;9.80;99.90;;;;;;5091515;28;20183;-62
2024/01/31 10:44:03;;;;;;;0.30;0.30;;;9.80;99.90;;;;;;5091522;28;20198;-63
2024/01/31 10:46:29;;;;;;;0.10;0.10;;;9.80;99.90;;;;;;5091464;28;20176;-62
2024/01/31 10:48:55;;;;;;;0.00;0.00;;;9.80;99.90;;;;;;5091520;28;20173;-62
2024/01/31 10:51:22;;;;;;;0.00;0.00;;;9.80;99.90;;;;;;5091487;28;20172;-62
2024/01/31 10:53:51;;;;;;;0.00;0.00;;;9.70;99.90;;;;;;5091375;28;20271;-63
2024/01/31 10:56:19;;;;;;;0.10;0.10;;;9.70;99.90;;;;;;5091491;28;20177;-62
2024/01/31 10:58:46;;;;;;;0.00;0.00;;;9.70;99.90;;;;;;5091333;28;20168;-62
2024/01/31 11:01:14;;;;;;;0.10;0.10;;;9.80;99.90;;;;;;5091358;28;20658;-62
2024/01/31 11:03:46;;;;;;;0.00;0.00;;;10.00;99.90;;;;;;5091357;28;20180;-62
2024/01/31 11:06:12;;;;;;;0.03;0.03;;;10.20;99.90;;;;;;5091267;28;20179;-62
2024/01/31 11:08:41;;;;;;;0.00;0.00;;;10.30;99.90;;;;;;5091297;28;20172;-63
2024/01/31 11:11:13;;;;;;;0.38;0.38;;;10.50;99.90;;;;;;5091287;28;20176;-62
2024/01/31 11:13:38;;;;;;;0.00;0.00;;;10.60;99.90;;;;;;5091047;28;20196;-62
2024/01/31 11:16:05;;;;;;;0.00;0.00;;;10.50;99.90;;;;;;5091099;28;20239;-63
2024/01/31 11:18:31;;;;;;;0.00;0.00;;;10.50;99.90;;;;;;5091273;28;20258;-62
2024/01/31 11:20:58;;;;;;;0.00;0.00;;;10.50;99.90;;;;;;5091215;28;20720;-62
2024/01/31 11:23:28;;;;;;;0.05;0.05;;;10.70;99.90;;;;;;5091024;28;20542;-63
2024/01/31 11:25:54;;;;;;;0.00;0.00;;;10.80;99.90;;;;;;5094999;28;20183;-63
2024/01/31 11:28:21;;;;;;;0.10;0.10;;;11.00;99.90;;;;;;5094931;28;20270;-63
2024/01/31 11:30:51;;;;;;;0.00;0.00;;;11.10;99.90;;;;;;5094811;28;20180;-63
2024/01/31 11:33:18;;;;;;;0.00;0.00;;;11.10;99.90;;;;;;5094910;28;20202;-62
2024/01/31 11:35:44;;;;;;;0.00;0.00;;;11.20;99.90;;;;;;5094559;28;20259;-63
2024/01/31 11:38:10;;;;;;;0.00;0.00;;;11.10;99.90;;;;;;5094803;28;20192;-63
2024/01/31 11:40:35;;;;;;;0.00;0.00;;;11.10;99.90;;;;;;5094529;28;20289;-63
2024/01/31 11:43:04;;;;;;;0.00;0.00;;;11.20;99.90;;;;;;5094607;28;20682;-63
2024/01/31 11:45:30;;;;;;;0.00;0.00;;;11.20;99.90;;;;;;5094599;28;20173;-62
2024/01/31 11:47:57;;;;;;;0.00;0.00;;;11.40;99.90;;;;;;5094720;28;20184;-63
2024/01/31 11:50:24;;;;;;;0.20;0.20;;;11.60;99.90;;;;;;5094280;28;20225;-62
2024/01/31 11:52:50;;;;;;;0.00;0.00;;;11.70;99.90;;;;;;5094508;28;20210;-62
2024/01/31 11:55:24;;;;;;;0.20;0.20;;;11.80;99.90;;;;;;5094411;28;20303;-62
2024/01/31 11:57:50;;;;;;;0.28;0.28;;;11.90;99.90;;;;;;5094355;28;20671;-63
2024/01/31 12:00:17;;;;;;;0.00;0.00;;;11.90;99.90;;;;;;5094363;28;20172;-63
2024/01/31 12:02:44;;;;;;;0.00;0.00;;;12.00;99.90;;;;;;5094169;28;20231;-62
2024/01/31 12:05:10;;;;;;;0.10;0.10;;;11.90;99.90;;;;;;5094325;28;20240;-63
2024/01/31 12:07:36;;;;;;;0.28;0.28;;;11.90;99.90;;;;;;5094119;28;20206;-62
2024/01/31 12:10:03;;;;;;;0.00;0.00;;;11.80;99.90;;;;;;5092701;28;20621;-62
2024/01/31 12:12:34;;;;;;;0.03;0.03;;;11.80;99.90;;;;;;5094014;28;20259;-62
2024/01/31 12:15:00;;;;;;;0.00;0.00;;;11.70;99.90;;;;;;5093971;28;20204;-63
2024/01/31 12:17:27;;;;;;;0.00;0.00;;;11.70;99.90;;;;;;5093887;28;20183;-63
2024/01/31 12:20:04;;;;;;;0.00;0.00;;;11.80;99.90;;;;;;5094102;28;20305;-63
2024/01/31 12:22:31;;;;;;;0.10;0.10;;;11.70;99.90;;;;;;5093816;28;20183;-62
2024/01/31 12:24:57;;;;;;;0.08;0.08;;;11.70;99.90;;;;;;5093864;28;20176;-63
2024/01/31 12:27:22;;;;;;;0.00;0.00;;;11.70;99.90;;;;;;5093458;28;20183;-62
2024/01/31 12:29:48;;;;;;;0.00;0.00;;;11.70;99.90;;;;;;5093767;28;20285;-62
2024/01/31 12:32:13;;;;;;;0.10;0.10;;;11.70;99.90;;;;;;5093737;28;20565;-63
2024/01/31 12:34:39;;;;;;;0.00;0.00;;;11.60;99.90;;;;;;5093497;28;20215;-63
2024/01/31 12:37:04;;;;;;;0.28;0.22;;;11.50;99.90;;;;;;5093567;28;20176;-62
2024/01/31 12:39:32;;;;;;;0.08;0.08;;;11.40;99.90;;;;;;5093297;28;20228;-62
2024/01/31 12:41:57;;;;;;;0.10;0.10;;;11.40;99.90;;;;;;5093510;28;20624;-62
2024/01/31 12:44:23;;;;;;;0.00;0.00;;;11.20;99.90;;;;;;5091978;28;20222;-62
2024/01/31 12:46:49;;;;;;;0.00;0.00;;;11.10;99.90;;;;;;5093458;28;20197;-62
2024/01/31 12:49:14;;;;;;;0.00;0.00;;;11.00;99.90;;;;;;5092192;28;20160;-62